EGPCEKVG

Guest
Details From EGPC - Wick
To EKVG - Vagar
Flight Number -
Tags generated
Created
Modified
Stats Distance 259 nm / 480 km
Max Altitude 24,500 ft / 7,468 m
Waypoints 4
Social Downloads 0
Likes 0
Share VATSIM

Download

Looking for another format? Having issues loading an existing format? Contact us
Advertisement - Login to hide

Notes

Basic altitude profile: - Ascent Rate: 2500ft/min - Ascent Speed: 250kts - Cruise Altitude: 35000ft - Cruise Speed: 420kts - Descent Rate: 1500ft/min - Descent Speed: 250kts Options: - Use NATs: yes - Use PACOTS: yes - Use low airways: yes - Use high airways: yes

Route

EGPC WIK UH70 GONUT EKVG

ID Type Via Altitude Latitude Longitude Leg Dist Tot Dist Heading (true) Name
O EGPC APT - 0 ft / 0 m 58.45787˚ -3.09298˚ - 0 nm - Wick
WIK VOR - 0 ft / 0 m 58.45889˚ -3.10028˚ 0 nm 0 nm 285° / 285° WICK VOR-DME
GONUT FIX UH70 (AWY-HI) 24,500 ft / 7,468 m 61.00000˚ -4.58333˚ 159 nm 159 nm 344° / 343° -
O EKVG APT - 0 ft / 0 m 62.06358˚ -7.27704˚ 100 nm 259 nm 311° / 308° Vagar

Altitude Profile

Advertisement - Login to hide

Weather


0- 5 10 15 20 25 30 35+ Temperature / ° C

Clouds and Precipitation
Forecast for 2017-12-13 00:00 UTC. Updated an hour ago

Ground ~20,000 ft ~40,000 ft Winds

EGPC

Details ICAO EGPC (WIC)
Name Wick
Region United Kingdom
Timezone Europe/London (UTC+0.0)
Stats Elevation 126 ft / 38 m (AMSL)
Location 58.457866° -3.092981°
Runways 2
Magnetic Variation 2.629° W

METAR

EGPC 122020Z 22006KT 180V250 9999 -RA SCT022 04/02 Q0990

Decode

TAF

Not found

Departure Runways

ID Width Length Bearing (true) Bearing (mag) Surface Threshold Offset Overrun Length
08 148 ft / 45 m 3,390 ft / 1,033 m 75.45° 78.08° Asphalt 0 ft / 0 m 0 ft / 0 m
13 148 ft / 45 m 5,978 ft / 1,822 m 127.02° 129.65° Asphalt 814 ft / 248 m 0 ft / 0 m
26 148 ft / 45 m 3,390 ft / 1,033 m 255.46° 258.09° Asphalt 0 ft / 0 m 0 ft / 0 m
31 148 ft / 45 m 5,978 ft / 1,822 m 307.04° 309.67° Asphalt 1,010 ft / 308 m 0 ft / 0 m

EKVG

Details ICAO EKVG (FAE)
Name Vagar
Region Denmark / Faroe Islands
Timezone Atlantic/Faroe (UTC+0.0)
Stats Elevation 280 ft / 85 m (AMSL)
Location 62.063584° -7.277044°
Runways 1
Magnetic Variation 5.385° W

METAR

EKVG 122020Z AUTO 14010KT 9999NDV DZ OVC014/// 05/04 Q0982 RMK BKN012/// WIND 850FT 14021KT

Decode

TAF

Not found

Destination Runways

ID Width Length Bearing (true) Bearing (mag) Surface Threshold Offset Overrun Length
13 98 ft / 30 m 4,088 ft / 1,246 m 117.92° 123.31° Asphalt 0 ft / 0 m 197 ft / 60 m
31 98 ft / 30 m 4,088 ft / 1,246 m 297.94° 303.33° Asphalt 0 ft / 0 m 197 ft / 60 m

Approach Navaids

Runway Type Ident Frequency Range Bearing (true) Bearing (mag) Slope Elevation
13 Localiser SF 109.10 MHz 17 nm / 31 km 104.19° 109.57° - 268 ft / 82 m (AMSL)
13 DME SF 109.10 MHz 18 nm / 33 km - - - 268 ft / 82 m (AMSL)
31 Localiser MF 110.30 MHz 26 nm / 48 km 296.18° 301.56° - 276 ft / 84 m (AMSL)
31 DME MF 110.30 MHz 25 nm / 46 km - - - 275 ft / 84 m (AMSL)

Popular Alternatives